Time;durP1;ratioP1;P1;durP2;ratioP2;P2;SDS_P1;SDS_P2;PMS_P1;PMS_P2;Temp;Humidity;BMP_temperature;BMP_pressure;BME280_temperature;BME280_humidity;BME280_pressure;Samples;Min_cycle;Max_cycle;Signal;HPM_P1;HPM_P2
2022/02/10 00:20:44;;;;;;;3.85;2.47;;;;;;;-3.38;100.00;93704.13;2100485;28;20028;-82
2022/02/10 00:21:54;;;;;;;5.40;2.53;;;;;;;-3.52;100.00;93710.59;2099726;28;20037;-84
2022/02/10 00:23:16;;;;;;;;;;;;;;;-3.41;100.00;93711.81;2098913;28;20025;-82
2022/02/10 00:34:28;;;;;;;3.92;2.63;;;;;;;-3.20;100.00;93704.81;2100455;28;20462;-81
2022/02/10 00:35:48;;;;;;;5.40;2.38;;;;;;;-3.19;100.00;93690.66;2096749;28;20431;-83
2022/02/10 00:38:05;;;;;;;7.35;3.03;;;;;;;-2.80;100.00;93694.00;2099899;28;20069;-81
2022/02/10 00:39:37;;;;;;;3.60;3.00;;;;;;;-2.96;100.00;93698.22;2098082;28;20036;-81
2022/02/10 00:40:38;;;;;;;6.57;2.67;;;;;;;-2.89;100.00;93690.66;2113937;28;20104;-83
2022/02/10 00:41:39;;;;;;;3.15;2.38;;;;;;;-3.04;100.00;93697.94;2106241;28;20020;-86
2022/02/10 00:42:40;;;;;;;4.45;2.78;;;;;;;-3.09;100.00;93690.28;2106145;28;20097;-84
2022/02/10 00:43:41;;;;;;;4.18;2.50;;;;;;;-3.16;100.00;93689.25;2106209;28;20176;-82
2022/02/10 00:44:42;;;;;;;5.63;2.67;;;;;;;-3.21;100.00;93694.66;2102954;28;20745;-82
2022/02/10 00:45:44;;;;;;;3.72;2.63;;;;;;;-3.14;100.00;93687.09;2106308;28;20020;-81
2022/02/10 00:46:45;;;;;;;4.68;3.20;;;;;;;-3.06;100.00;93686.28;2090051;28;20056;-82
2022/02/10 00:47:55;;;;;;;4.85;2.88;;;;;;;-3.02;100.00;93691.66;2097945;28;20028;-82
2022/02/10 00:48:56;;;;;;;6.10;3.10;;;;;;;-3.11;100.00;93683.84;2099319;28;20020;-84
2022/02/10 00:49:59;;;;;;;3.40;2.60;;;;;;;-3.14;100.00;93679.25;2097844;28;20429;-84
2022/02/10 00:51:00;;;;;;;7.30;2.30;;;;;;;-3.13;100.00;93681.53;2090082;28;20049;-82
2022/02/10 00:52:04;;;;;;;4.00;2.90;;;;;;;-3.04;100.00;93686.72;2114644;27;20376;-84
2022/02/10 00:53:24;;;;;;;4.15;2.55;;;;;;;-3.10;100.00;93678.31;2118475;27;20376;-83
2022/02/10 00:54:27;;;;;;;3.47;2.65;;;;;;;-3.14;100.00;93676.63;2095365;28;20115;-82
2022/02/10 00:55:30;;;;;;;3.90;2.50;;;;;;;-3.16;100.00;93679.56;2090082;28;20461;-83
2022/02/10 00:56:31;;;;;;;4.00;2.53;;;;;;;-3.18;100.00;93675.72;2098110;28;20465;-80
2022/02/10 00:57:32;;;;;;;4.20;2.10;;;;;;;-3.17;100.00;93674.63;2100281;28;20031;-82
2022/02/10 00:58:35;;;;;;;5.13;3.00;;;;;;;-2.95;100.00;93689.28;2097734;28;20044;-84
2022/02/10 01:30:08;;;;;;;4.63;2.22;;;;;;;-3.26;100.00;93663.47;2106038;28;20032;-81
2022/02/10 01:31:10;;;;;;;3.83;1.98;;;;;;;-3.43;100.00;93667.69;2097487;28;20035;-83
2022/02/10 01:32:11;;;;;;;3.05;2.00;;;;;;;-3.27;100.00;93669.78;2082115;28;20110;-83
2022/02/10 01:33:12;;;;;;;3.22;1.98;;;;;;;-3.39;100.00;93665.97;2102241;28;20020;-83
2022/02/10 01:34:13;;;;;;;3.90;2.13;;;;;;;-3.35;100.00;93673.97;2105379;28;20457;-81
2022/02/10 01:35:20;;;;;;;3.47;1.90;;;;;;;-3.41;100.00;93675.97;2097363;28;20729;-82
2022/02/10 01:36:21;;;;;;;4.95;2.30;;;;;;;-3.45;100.00;93672.47;2105947;28;20095;-85
2022/02/10 01:37:22;;;;;;;5.72;2.10;;;;;;;-3.50;100.00;93672.63;2105694;28;20031;-84
2022/02/10 01:38:23;;;;;;;4.80;2.22;;;;;;;-3.57;100.00;93678.34;2105674;28;20020;-83
2022/02/10 01:39:30;;;;;;;2.97;1.80;;;;;;;-3.63;100.00;93665.78;2105774;28;20035;-81
2022/02/10 01:58:05;;;;;;;5.03;2.13;;;;;;;-3.73;100.00;93666.09;2099739;28;20063;-82
2022/02/10 02:03:20;;;;;;;4.85;2.30;;;;;;;-3.81;100.00;93647.53;2100195;28;20021;-82
2022/02/10 02:04:22;;;;;;;3.53;2.08;;;;;;;-3.89;100.00;93658.78;2093652;28;20020;-82
2022/02/10 02:05:36;;;;;;;4.30;2.33;;;;;;;-3.82;100.00;93656.47;2104298;28;20022;-82
2022/02/10 02:06:43;;;;;;;6.50;2.25;;;;;;;-3.95;100.00;93654.81;2105184;28;20123;-83
2022/02/10 02:07:44;;;;;;;4.38;2.15;;;;;;;-3.85;100.00;93658.91;2099101;28;20051;-84
2022/02/10 02:08:45;;;;;;;4.35;1.92;;;;;;;-3.93;100.00;93654.47;2105705;28;20362;-85
2022/02/10 02:09:46;;;;;;;4.00;2.40;;;;;;;-3.87;100.00;93650.63;2105720;28;20024;-83
2022/02/10 02:10:47;;;;;;;7.38;2.60;;;;;;;-3.61;100.00;93653.16;2097149;28;20051;-84
2022/02/10 02:11:53;;;;;;;5.55;2.47;;;;;;;-3.72;100.00;93652.75;2097606;28;20025;-86
2022/02/10 02:12:54;;;;;;;6.80;2.20;;;;;;;-3.81;100.00;93654.59;2113974;28;20043;-84
2022/02/10 02:13:55;;;;;;;6.80;2.80;;;;;;;-3.86;100.00;93654.78;2113950;28;20581;-82
2022/02/10 02:14:56;;;;;;;5.20;2.80;;;;;;;-3.73;100.00;93653.03;2112482;28;20039;-83
2022/02/10 02:15:57;;;;;;;5.05;2.97;;;;;;;-3.65;100.00;93654.84;2102979;28;20062;-82
2022/02/10 02:17:02;;;;;;;3.63;2.60;;;;;;;-3.71;100.00;93645.66;2089115;28;20111;-84
2022/02/10 02:18:03;;;;;;;5.43;3.03;;;;;;;-3.68;100.00;93648.44;2098270;28;20082;-84
2022/02/10 02:19:04;;;;;;;4.63;2.47;;;;;;;-3.73;100.00;93646.00;2114251;28;20023;-81
2022/02/10 02:20:06;;;;;;;3.88;2.42;;;;;;;-3.81;100.00;93644.16;2114133;28;20055;-84
2022/02/10 02:21:08;;;;;;;6.55;2.47;;;;;;;-3.80;100.00;93643.09;2104168;28;20085;-83
2022/02/10 02:22:10;;;;;;;7.57;2.85;;;;;;;-3.84;100.00;93634.34;2104389;28;20111;-82
2022/02/10 02:23:10;;;;;;;6.30;3.00;;;;;;;-3.85;100.00;93641.41;2097350;28;20046;-82
2022/02/10 02:24:15;;;;;;;4.93;2.80;;;;;;;-3.76;100.00;93646.59;2097456;28;20025;-82
2022/02/10 02:25:16;;;;;;;5.43;2.67;;;;;;;-3.63;100.00;93640.41;2106145;28;20031;-83
2022/02/10 02:26:23;;;;;;;5.70;2.60;;;;;;;-3.72;100.00;93639.69;2114543;28;20487;-84
2022/02/10 02:27:27;;;;;;;4.65;2.60;;;;;;;-3.67;100.00;93641.34;2121677;28;20022;-84
2022/02/10 02:28:28;;;;;;;4.40;2.75;;;;;;;-3.80;100.00;93635.25;2105738;28;20085;-80
2022/02/10 02:29:35;;;;;;;5.18;3.30;;;;;;;-3.83;100.00;93633.25;2097348;28;20027;-82
2022/02/10 02:30:45;;;;;;;7.97;3.05;;;;;;;-3.69;100.00;93635.66;2098892;28;20103;-83
2022/02/10 02:31:52;;;;;;;5.22;2.92;;;;;;;-3.70;100.00;93637.50;2106345;28;20024;-83
2022/02/10 02:35:37;;;;;;;8.10;2.92;;;;;;;-3.77;100.00;93629.41;2106452;28;20048;-84
2022/02/10 02:38:53;;;;;;;4.15;2.60;;;;;;;-3.78;100.00;93633.06;2114177;27;20024;-84
2022/02/10 03:04:05;;;;;;;9.68;3.00;;;;;;;-3.83;100.00;93620.19;2113951;28;20039;-86
2022/02/10 03:07:11;;;;;;;5.75;3.03;;;;;;;-3.90;100.00;93601.66;2081593;28;20642;-81
2022/02/10 03:08:14;;;;;;;6.95;3.20;;;;;;;-3.90;100.00;93606.88;2099659;28;20032;-81
2022/02/10 03:09:22;;;;;;;5.68;3.28;;;;;;;-3.97;100.00;93598.75;2090948;28;20895;-83
2022/02/10 03:10:42;;;;;;;9.45;3.50;;;;;;;-3.97;100.00;93603.97;2098164;28;20636;-81
2022/02/10 03:11:43;;;;;;;7.55;2.97;;;;;;;-4.00;100.00;93604.59;2098425;28;20025;-85
2022/02/10 03:12:44;;;;;;;5.38;3.50;;;;;;;-4.03;100.00;93594.78;2090159;28;20029;-83
2022/02/10 03:13:52;;;;;;;6.50;3.13;;;;;;;-3.95;100.00;93599.19;2090332;28;20025;-81
2022/02/10 03:14:58;;;;;;;4.75;3.20;;;;;;;-4.00;100.00;93594.13;2090666;28;20029;-81
2022/02/10 03:21:27;;;;;;;6.47;4.00;;;;;;;-3.84;100.00;93598.53;2107018;28;20024;-84
2022/02/10 04:07:19;;;;;;;9.95;3.70;;;;;;;0.92;100.00;93598.97;2108999;28;20028;-80
2022/02/10 04:08:39;;;;;;;10.05;3.72;;;;;;;1.07;100.00;93607.94;2103416;28;20038;-81
2022/02/10 04:10:03;;;;;;;9.25;3.08;;;;;;;1.37;100.00;93608.19;2110401;28;20027;-79
2022/02/10 04:17:29;;;;;;;16.92;3.63;;;;;;;1.43;100.00;93606.03;2105823;28;20020;-83
2022/02/10 04:19:05;;;;;;;8.80;4.25;;;;;;;1.57;100.00;93611.59;2101185;28;20024;-83
2022/02/10 04:21:10;;;;;;;9.88;4.55;;;;;;;1.58;100.00;93607.88;2106920;28;20035;-82
2022/02/10 04:23:04;;;;;;;9.35;4.18;;;;;;;1.69;100.00;93602.81;2101550;28;20020;-81
2022/02/10 04:27:58;;;;;;;10.82;4.57;;;;;;;1.92;100.00;93600.97;2114180;28;20102;-82
2022/02/10 04:29:16;;;;;;;12.15;5.32;;;;;;;1.94;100.00;93606.69;2114237;28;20114;-82
2022/02/10 04:59:10;;;;;;;11.93;4.80;;;;;;;2.45;100.00;93606.41;2106987;28;20023;-82
2022/02/10 05:01:47;;;;;;;12.98;4.53;;;;;;;2.52;100.00;93595.25;2100268;28;20029;-81
2022/02/10 05:17:29;;;;;;;12.50;4.15;;;;;;;2.35;100.00;93582.50;2108683;28;20126;-82
2022/02/10 05:34:02;;;;;;;21.40;7.97;;;;;;;2.25;100.00;93578.59;2106607;28;20028;-82
2022/02/10 05:35:27;;;;;;;15.57;7.97;;;;;;;2.07;100.00;93574.88;2108407;28;20119;-81
2022/02/10 05:36:39;;;;;;;11.38;6.18;;;;;;;2.05;100.00;93582.38;2107025;28;20034;-82
2022/02/10 05:37:41;;;;;;;14.27;6.55;;;;;;;1.97;100.00;93568.28;2099171;28;20031;-83
2022/02/10 05:38:51;;;;;;;15.00;6.85;;;;;;;2.00;100.00;93578.91;2097967;28;20036;-81
2022/02/10 05:39:55;;;;;;;12.50;5.07;;;;;;;2.10;100.00;93574.94;2098770;28;20059;-81
2022/02/10 06:50:24;;;;;;;8.88;4.35;;;;;;;2.86;100.00;93569.75;2106797;28;20618;-80
2022/02/10 06:51:47;;;;;;;7.68;4.03;;;;;;;3.05;100.00;93549.63;2099292;28;20032;-82
2022/02/10 07:03:28;;;;;;;;;;;;;;;3.00;100.00;93559.38;2115168;28;20457;-81
2022/02/10 07:07:33;;;;;;;9.07;4.15;;;;;;;3.35;100.00;93547.78;2105349;28;20174;-80
2022/02/10 07:12:03;;;;;;;13.68;4.68;;;;;;;3.41;100.00;93554.25;2107568;28;20040;-83
2022/02/10 07:17:08;;;;;;;10.50;4.07;;;;;;;3.58;100.00;93554.81;2105761;28;20028;-83
2022/02/10 07:48:03;;;;;;;8.68;4.35;;;;;;;4.92;90.77;93543.19;2105304;28;20032;-84
2022/02/10 07:58:58;;;;;;;7.25;4.10;;;;;;;5.34;87.48;93549.88;2109046;28;20086;-85
2022/02/10 08:56:30;;;;;;;8.25;4.28;;;;;;;6.11;82.43;93561.94;2090428;28;20021;-81
2022/02/10 08:57:49;;;;;;;8.13;3.58;;;;;;;6.37;80.22;93554.78;2105013;28;20090;-87
2022/02/10 08:59:32;;;;;;;6.70;3.67;;;;;;;6.37;83.07;93563.50;2103093;28;20095;-84
2022/02/10 09:04:06;;;;;;;15.48;6.80;;;;;;;6.57;80.09;93547.94;2097069;28;20023;-82
2022/02/10 09:05:39;;;;;;;16.20;8.57;;;;;;;6.34;83.53;93566.91;2091036;28;20482;-80
2022/02/10 09:18:52;;;;;;;13.73;4.38;;;;;;;6.49;80.02;93557.03;2113767;28;19911;-82
2022/02/10 09:58:26;;;;;;;9.25;4.53;;;;;;;7.22;81.09;93569.94;2106769;28;20024;-80
2022/02/10 10:02:04;;;;;;;8.90;4.65;;;;;;;6.97;83.35;93568.03;2121214;27;20015;-81
2022/02/10 10:03:22;;;;;;;12.15;5.25;;;;;;;7.08;83.89;93568.06;2109342;28;20122;-82
2022/02/10 10:04:31;;;;;;;9.88;5.00;;;;;;;7.15;81.22;93569.94;2101063;28;20028;-82
2022/02/10 10:05:39;;;;;;;14.27;4.88;;;;;;;7.15;80.66;93583.22;2097205;28;20020;-84
2022/02/10 10:06:59;;;;;;;12.10;5.30;;;;;;;6.97;85.38;93578.69;2090038;28;20021;-81
2022/02/10 10:08:30;;;;;;;8.35;4.25;;;;;;;6.84;85.55;93568.81;2096663;28;20020;-81
2022/02/10 10:14:31;;;;;;;8.52;4.43;;;;;;;7.18;84.17;93577.91;2108114;28;20567;-81
2022/02/10 10:15:56;;;;;;;8.63;4.75;;;;;;;7.08;85.32;93586.66;2106515;28;20036;-81
2022/02/10 10:17:16;;;;;;;7.88;4.95;;;;;;;6.82;86.42;93582.50;2096333;28;20052;-83
2022/02/10 10:19:44;;;;;;;10.05;5.00;;;;;;;7.16;82.65;93582.84;2111737;28;21000;-82
2022/02/10 10:21:27;;;;;;;7.93;4.60;;;;;;;7.10;85.07;93594.25;2104694;28;20065;-82
2022/02/10 10:50:29;;;;;;;8.20;4.60;;;;;;;7.29;83.26;93594.59;2104559;28;20063;-83
2022/02/10 10:53:09;;;;;;;9.85;4.80;;;;;;;7.63;79.11;93577.41;2106741;28;20637;-83
2022/02/10 10:54:18;;;;;;;9.65;5.20;;;;;;;7.60;80.22;93594.16;2102584;28;20517;-82
2022/02/10 10:55:40;;;;;;;10.32;4.72;;;;;;;7.37;86.69;93623.84;2097940;28;20035;-80
2022/02/10 10:56:44;;;;;;;11.25;5.32;;;;;;;7.05;86.21;93590.06;2095420;28;20371;-79
2022/02/10 10:57:49;;;;;;;9.52;4.95;;;;;;;7.36;80.64;93591.16;2102417;28;20485;-81
2022/02/10 11:38:05;;;;;;;9.27;5.15;;;;;;;6.41;92.54;93574.09;2114372;28;20050;-80
2022/02/10 11:39:11;;;;;;;9.65;5.65;;;;;;;6.26;93.74;93589.25;2105074;28;20036;-83
2022/02/10 11:40:18;;;;;;;8.45;5.30;;;;;;;6.30;92.04;93571.44;2108761;28;20094;-81
2022/02/10 11:42:33;;;;;;;9.18;5.45;;;;;;;6.41;92.28;93566.91;2105853;28;20459;-81
2022/02/10 11:44:43;;;;;;;11.10;6.45;;;;;;;6.26;95.40;93568.00;2115315;27;20086;-82
2022/02/10 11:59:55;;;;;;;11.88;5.88;;;;;;;6.49;91.71;93565.00;2121927;27;20023;-80
2022/02/10 12:37:29;;;;;;;10.00;5.20;;;;;;;6.53;94.66;93541.88;2109895;28;20019;-79
2022/02/10 12:40:09;;;;;;;15.40;6.93;;;;;;;6.51;93.29;93531.63;2109765;28;20520;-82
2022/02/10 13:23:24;;;;;;;14.40;6.05;;;;;;;5.70;100.00;93538.25;2108112;28;20019;-79
2022/02/10 13:27:43;;;;;;;10.27;6.38;;;;;;;5.55;100.00;93523.44;2110601;28;20110;-79
2022/02/10 14:10:20;;;;;;;9.25;6.28;;;;;;;5.21;100.00;93544.13;2098551;28;20119;-78
2022/02/10 14:11:55;;;;;;;13.40;6.72;;;;;;;5.12;100.00;93551.63;2099851;28;20141;-81
2022/02/10 14:13:51;;;;;;;12.80;6.93;;;;;;;5.09;100.00;93539.88;2109484;28;20565;-79
2022/02/10 14:15:01;;;;;;;13.23;6.85;;;;;;;5.04;100.00;93540.22;2098208;28;20028;-82
2022/02/10 14:17:14;;;;;;;14.20;6.15;;;;;;;5.23;100.00;93547.16;2092125;28;20112;-80
2022/02/10 14:19:30;;;;;;;13.00;7.15;;;;;;;5.19;100.00;93533.13;2105004;28;20727;-82
2022/02/10 14:25:47;;;;;;;12.15;6.63;;;;;;;4.86;100.00;93537.47;2099067;28;20025;-79
2022/02/10 14:26:49;;;;;;;10.23;6.70;;;;;;;4.75;100.00;93540.06;2095158;28;20089;-83
2022/02/10 14:27:50;;;;;;;9.40;6.50;;;;;;;4.74;100.00;93545.69;2104402;28;20365;-79
2022/02/10 14:28:51;;;;;;;13.35;7.47;;;;;;;4.80;100.00;93529.13;2096354;28;20421;-81
2022/02/10 14:29:52;;;;;;;11.43;7.25;;;;;;;4.67;100.00;93537.72;2095850;28;20024;-81
2022/02/10 14:30:58;;;;;;;12.70;7.05;;;;;;;4.82;100.00;93531.38;2099796;28;20024;-79
2022/02/10 14:32:00;;;;;;;12.10;6.53;;;;;;;4.92;100.00;93533.38;2089318;28;20031;-80
2022/02/10 14:33:01;;;;;;;10.45;6.45;;;;;;;4.99;100.00;93545.88;2088055;28;20025;-82
2022/02/10 14:34:02;;;;;;;13.25;7.22;;;;;;;5.02;100.00;93543.25;2095991;28;20027;-79
2022/02/10 14:35:13;;;;;;;13.52;6.80;;;;;;;5.04;100.00;93519.03;2103901;28;20047;-82
2022/02/10 14:36:31;;;;;;;11.60;6.70;;;;;;;4.89;100.00;93535.97;2097613;28;20071;-81
2022/02/10 14:40:09;;;;;;;9.93;5.68;;;;;;;4.87;100.00;93527.63;2115106;27;20023;-79
2022/02/10 14:43:02;;;;;;;;;;;;;;;4.69;100.00;93514.28;2098444;28;20031;-82
2022/02/10 15:17:52;;;;;;;6.82;4.63;;;;;;;4.63;100.00;93529.00;2117356;27;20055;-82
2022/02/10 15:48:22;;;;;;;7.40;4.43;;;;;;;4.05;100.00;93514.53;2106066;28;20024;-79
2022/02/10 15:52:20;;;;;;;7.03;4.07;;;;;;;4.35;100.00;93514.41;2114187;28;20000;-81
2022/02/10 16:16:51;;;;;;;5.10;3.85;;;;;;;4.36;100.00;93507.25;2108008;28;20114;-80
2022/02/10 16:17:54;;;;;;;6.90;3.65;;;;;;;4.02;100.00;93512.59;2100883;28;20058;-80
2022/02/10 16:18:58;;;;;;;6.25;3.97;;;;;;;4.22;100.00;93513.19;2098799;28;20477;-80
2022/02/10 16:20:06;;;;;;;10.07;4.30;;;;;;;4.26;100.00;93513.97;2107132;28;20115;-78
2022/02/10 16:21:08;;;;;;;6.55;3.85;;;;;;;3.97;100.00;93503.13;2107513;28;20058;-80
2022/02/10 16:23:16;;;;;;;7.00;4.40;;;;;;;4.01;100.00;93525.06;2108328;28;20028;-82
2022/02/10 16:24:27;;;;;;;5.32;3.90;;;;;;;4.24;100.00;93513.56;2113888;28;20091;-79
2022/02/10 16:25:35;;;;;;;4.72;3.47;;;;;;;4.09;100.00;93514.56;2098099;28;20028;-78
2022/02/10 16:26:42;;;;;;;8.13;3.40;;;;;;;4.27;100.00;93518.13;2106818;28;20035;-82
2022/02/10 16:27:50;;;;;;;5.07;3.60;;;;;;;4.20;100.00;93520.69;2098663;28;20021;-80
2022/02/10 16:28:51;;;;;;;4.80;3.17;;;;;;;4.01;100.00;93519.78;2099789;28;20090;-80
2022/02/10 16:29:57;;;;;;;5.22;3.78;;;;;;;4.15;100.00;93519.16;2106424;28;20024;-80
2022/02/10 16:31:11;;;;;;;7.32;3.95;;;;;;;4.18;100.00;93510.50;2107380;28;20020;-80
2022/02/10 16:32:12;;;;;;;5.80;3.30;;;;;;;3.95;100.00;93515.97;2098002;28;20103;-82
2022/02/10 16:33:14;;;;;;;5.10;3.65;;;;;;;3.81;100.00;93513.16;2101018;28;20062;-81
2022/02/10 16:34:15;;;;;;;6.22;3.55;;;;;;;3.90;100.00;93516.25;2097904;28;20104;-81
2022/02/10 16:35:16;;;;;;;8.25;3.78;;;;;;;3.79;100.00;93510.13;2097894;28;20073;-81
2022/02/10 16:36:17;;;;;;;6.05;3.28;;;;;;;3.81;100.00;93513.16;2098156;28;20432;-80
2022/02/10 16:37:19;;;;;;;7.20;4.07;;;;;;;3.88;100.00;93505.31;2097846;28;20118;-79
2022/02/10 16:38:20;;;;;;;6.78;3.50;;;;;;;3.96;100.00;93504.25;2097956;28;20023;-83
2022/02/10 16:39:22;;;;;;;6.25;4.68;;;;;;;3.85;100.00;93506.03;2093648;28;20076;-81
2022/02/10 16:40:23;;;;;;;8.15;4.32;;;;;;;3.78;100.00;93508.63;2089652;28;20386;-81
2022/02/10 16:41:24;;;;;;;5.53;4.38;;;;;;;3.69;100.00;93500.97;2089691;28;20628;-81
2022/02/10 16:42:25;;;;;;;7.75;4.65;;;;;;;3.57;100.00;93506.50;2097972;28;20096;-81
2022/02/10 16:43:26;;;;;;;4.20;3.70;;;;;;;3.63;100.00;93504.28;2106622;28;20098;-80
2022/02/10 16:44:27;;;;;;;5.35;3.90;;;;;;;3.79;100.00;93508.25;2106404;28;20039;-82
2022/02/10 16:45:28;;;;;;;5.97;3.60;;;;;;;3.94;100.00;93505.72;2098167;28;20404;-80
2022/02/10 16:46:29;;;;;;;7.25;3.55;;;;;;;3.95;100.00;93497.44;2106296;28;20085;-82
2022/02/10 16:47:30;;;;;;;5.47;3.40;;;;;;;3.88;100.00;93493.97;2097931;28;20021;-82
2022/02/10 16:48:33;;;;;;;5.93;3.70;;;;;;;3.96;100.00;93504.25;2098094;28;20111;-79
2022/02/10 16:49:34;;;;;;;5.47;3.70;;;;;;;4.11;100.00;93491.91;2112194;28;20023;-83
2022/02/10 16:50:35;;;;;;;5.43;3.28;;;;;;;3.88;100.00;93492.09;2110724;28;20221;-80
2022/02/10 16:51:41;;;;;;;7.25;4.22;;;;;;;3.97;100.00;93503.13;2114631;28;20032;-81
2022/02/10 16:52:47;;;;;;;5.50;3.83;;;;;;;3.70;100.00;93505.13;2105554;28;20126;-80
2022/02/10 16:53:52;;;;;;;6.43;3.50;;;;;;;3.66;100.00;93498.28;2114613;28;20039;-81
2022/02/10 16:55:06;;;;;;;4.75;3.30;;;;;;;3.83;100.00;93500.34;2098189;28;20065;-81
2022/02/10 16:56:13;;;;;;;5.07;3.63;;;;;;;3.84;100.00;93498.47;2093590;28;20099;-79
2022/02/10 16:58:58;;;;;;;6.53;3.53;;;;;;;3.73;100.00;93493.84;2106022;28;20020;-81
2022/02/10 17:00:03;;;;;;;7.40;3.90;;;;;;;3.65;100.00;93510.75;2108524;28;20036;-82
2022/02/10 17:03:46;;;;;;;5.45;3.58;;;;;;;3.58;100.00;93502.72;2099964;28;20732;-79
2022/02/10 17:21:26;;;;;;;4.20;3.38;;;;;;;4.04;100.00;93481.28;2114268;28;20035;-81
2022/02/10 17:25:22;;;;;;;5.28;3.65;;;;;;;3.86;100.00;93478.44;2104333;28;20020;-79
2022/02/10 17:27:46;;;;;;;4.28;3.60;;;;;;;3.95;100.00;93478.94;2107710;28;20025;-80
2022/02/10 17:28:49;;;;;;;6.38;3.47;;;;;;;3.83;100.00;93478.44;2097828;28;20032;-82
2022/02/10 17:33:16;;;;;;;5.85;3.45;;;;;;;4.10;100.00;93487.00;2112950;28;20011;-81
2022/02/10 17:35:15;;;;;;;8.85;5.82;;;;;;;4.04;100.00;93487.31;2115092;27;20054;-79
2022/02/10 17:35:55;;;;;;;8.00;4.78;;;;;;;4.06;100.00;93484.31;2102057;28;20035;-80
2022/02/10 17:41:24;;;;;;;6.68;4.38;;;;;;;4.13;100.00;93486.28;2098672;28;20240;-79
2022/02/10 17:46:22;;;;;;;7.15;5.38;;;;;;;3.90;100.00;93495.09;2106088;28;20373;-81
2022/02/10 17:52:24;;;;;;;5.80;3.25;;;;;;;4.09;100.00;93496.06;2109031;28;20065;-80
2022/02/10 17:53:28;;;;;;;28.67;19.00;;;;;;;4.09;100.00;93496.06;2105649;28;20489;-80
2022/02/10 17:54:29;;;;;;;6.38;4.30;;;;;;;4.07;100.00;93498.28;2109146;28;20103;-79
2022/02/10 17:55:31;;;;;;;11.57;8.50;;;;;;;4.07;100.00;93496.41;2100668;28;20052;-82
2022/02/10 17:56:33;;;;;;;10.75;5.50;;;;;;;3.93;100.00;93491.75;2105038;28;20020;-80
2022/02/10 17:57:34;;;;;;;28.10;15.23;;;;;;;3.94;100.00;93495.91;2103527;28;20420;-82
2022/02/10 17:58:36;;;;;;;31.80;15.52;;;;;;;4.08;100.00;93491.88;2097232;28;20032;-79
2022/02/10 17:59:37;;;;;;;27.98;14.82;;;;;;;3.97;100.00;93491.78;2105677;28;20057;-83
2022/02/10 18:00:38;;;;;;;33.60;16.88;;;;;;;3.91;100.00;93488.72;2095562;28;20029;-80
2022/02/10 18:01:39;;;;;;;24.30;13.52;;;;;;;4.07;100.00;93493.75;2096725;28;20028;-80
2022/02/10 18:02:40;;;;;;;14.93;7.65;;;;;;;3.96;100.00;93496.31;2096953;28;20035;-80
2022/02/10 18:03:41;;;;;;;6.28;4.20;;;;;;;3.85;100.00;93490.16;2095513;28;20350;-82
2022/02/10 18:04:42;;;;;;;10.82;5.68;;;;;;;3.74;100.00;93492.72;2097143;28;20032;-82
2022/02/10 18:06:47;;;;;;;15.10;8.38;;;;;;;3.88;100.00;93499.25;2097031;28;20029;-82
2022/02/10 18:07:50;;;;;;;8.82;5.03;;;;;;;3.93;100.00;93493.63;2105499;28;20044;-79
2022/02/10 18:15:15;;;;;;;8.23;6.05;;;;;;;3.55;100.00;93500.78;2115491;27;20031;-79
2022/02/10 18:16:33;;;;;;;6.30;3.83;;;;;;;3.72;100.00;93496.81;2093735;28;20764;-81
2022/02/10 18:17:39;;;;;;;5.65;4.75;;;;;;;3.58;100.00;93496.69;2085991;28;20028;-81
2022/02/10 18:18:49;;;;;;;8.40;5.40;;;;;;;3.55;100.00;93506.09;2086138;28;20017;-80
2022/02/10 18:20:05;;;;;;;7.18;5.95;;;;;;;3.53;100.00;93503.81;2097163;28;20600;-81
2022/02/10 18:22:08;;;;;;;5.85;4.18;;;;;;;3.45;100.00;93501.44;2097427;28;20158;-79
2022/02/10 18:24:01;;;;;;;4.57;3.67;;;;;;;3.34;100.00;93497.94;2106328;28;20106;-82
2022/02/10 18:25:12;;;;;;;6.20;3.47;;;;;;;3.35;100.00;93497.56;2106809;28;20366;-81
2022/02/10 18:26:16;;;;;;;7.63;3.92;;;;;;;3.67;100.00;93497.16;2122093;27;20114;-81
2022/02/10 18:28:33;;;;;;;5.78;5.22;;;;;;;3.67;100.00;93483.94;2103985;28;20042;-80
2022/02/10 19:04:00;;;;;;;10.88;5.72;;;;;;;4.01;100.00;93469.53;2100560;28;20020;-80
2022/02/10 19:07:02;;;;;;;8.95;6.53;;;;;;;3.61;100.00;93462.38;2093977;28;20447;-80
2022/02/10 19:09:12;;;;;;;11.07;6.72;;;;;;;3.64;100.00;93466.91;2103025;28;20402;-81
2022/02/10 19:10:15;;;;;;;8.90;6.13;;;;;;;3.70;100.00;93464.72;2099844;28;20040;-80
2022/02/10 19:11:18;;;;;;;10.20;6.32;;;;;;;3.85;100.00;93462.97;2087493;28;20045;-81
2022/02/10 19:12:26;;;;;;;15.55;8.15;;;;;;;3.84;100.00;93458.81;2087393;28;20373;-81
2022/02/10 19:13:28;;;;;;;7.30;5.40;;;;;;;3.83;100.00;93458.03;2090168;28;20663;-80
2022/02/10 19:14:34;;;;;;;7.28;4.80;;;;;;;3.97;100.00;93458.16;2105025;28;20020;-80
2022/02/10 19:15:35;;;;;;;7.97;6.63;;;;;;;4.11;100.00;93448.81;2103601;28;20048;-80
2022/02/10 19:16:37;;;;;;;7.55;4.78;;;;;;;4.11;100.00;93456.75;2093587;28;20144;-80
2022/02/10 19:17:38;;;;;;;6.35;4.25;;;;;;;3.96;100.00;93450.59;2095890;28;20043;-82
2022/02/10 19:18:39;;;;;;;8.55;5.10;;;;;;;3.93;100.00;93451.31;2095678;28;20025;-83
2022/02/10 19:19:41;;;;;;;7.38;5.47;;;;;;;3.96;100.00;93454.00;2095207;28;20040;-80
2022/02/10 19:20:42;;;;;;;10.98;5.03;;;;;;;3.89;100.00;93456.56;2096321;28;20024;-81
2022/02/10 19:21:43;;;;;;;8.98;5.13;;;;;;;3.80;100.00;93458.75;2079677;28;20029;-82
2022/02/10 19:22:44;;;;;;;7.38;4.57;;;;;;;3.76;100.00;93453.44;2096674;28;20067;-82
2022/02/10 19:23:45;;;;;;;8.52;4.68;;;;;;;3.82;100.00;93455.75;2094966;28;20020;-82
2022/02/10 19:24:46;;;;;;;6.60;4.53;;;;;;;3.72;100.00;93455.28;2096617;28;20040;-80
2022/02/10 19:25:47;;;;;;;6.15;4.78;;;;;;;3.77;100.00;93462.13;2103279;28;20023;-81
2022/02/10 19:26:50;;;;;;;7.43;4.60;;;;;;;3.84;100.00;93458.81;2095508;28;20112;-81
2022/02/10 19:27:51;;;;;;;8.82;4.65;;;;;;;3.80;100.00;93450.81;2095534;28;20055;-80
2022/02/10 19:28:53;;;;;;;9.20;4.68;;;;;;;3.92;100.00;93455.09;2086406;28;20100;-82
2022/02/10 19:29:57;;;;;;;12.23;9.77;;;;;;;4.00;100.00;93456.69;2087193;28;20101;-80
2022/02/10 19:31:00;;;;;;;12.13;7.53;;;;;;;3.94;100.00;93464.16;2088086;28;20746;-81
2022/02/10 19:32:02;;;;;;;8.05;5.05;;;;;;;3.98;100.00;93462.31;2085246;28;20855;-81
2022/02/10 19:33:09;;;;;;;8.93;5.15;;;;;;;4.03;100.00;93459.34;2087231;28;20109;-81
2022/02/10 19:34:10;;;;;;;8.70;7.28;;;;;;;4.08;100.00;93463.53;2088558;28;20820;-82
2022/02/10 19:35:13;;;;;;;6.30;4.43;;;;;;;3.94;100.00;93461.53;2091078;28;20031;-81
2022/02/10 19:36:14;;;;;;;8.55;4.50;;;;;;;3.90;100.00;93457.34;2088185;28;20073;-81
2022/02/10 19:37:16;;;;;;;7.72;4.47;;;;;;;3.88;100.00;93457.72;2087320;28;20792;-82
2022/02/10 19:38:21;;;;;;;8.25;4.35;;;;;;;3.94;100.00;93464.16;2088338;28;20063;-80
2022/02/10 19:39:23;;;;;;;6.57;4.65;;;;;;;3.87;100.00;93460.72;2095293;28;20024;-81
2022/02/10 19:40:26;;;;;;;6.85;4.53;;;;;;;3.81;100.00;93464.81;2089789;28;20028;-81
2022/02/10 19:41:32;;;;;;;6.70;4.40;;;;;;;3.75;100.00;93467.03;2102776;28;20111;-82
2022/02/10 19:42:35;;;;;;;8.90;4.90;;;;;;;3.70;100.00;93470.00;2114581;28;20035;-81
2022/02/10 19:43:37;;;;;;;10.35;4.63;;;;;;;3.65;100.00;93465.81;2099462;28;20641;-83
2022/02/10 19:44:38;;;;;;;9.48;4.20;;;;;;;3.63;100.00;93464.63;2087518;28;20017;-81
2022/02/10 19:45:40;;;;;;;8.02;5.03;;;;;;;3.59;100.00;93461.19;2087123;28;20434;-82
2022/02/10 19:46:43;;;;;;;7.88;5.20;;;;;;;3.56;100.00;93457.41;2104173;28;20036;-82
2022/02/10 19:47:44;;;;;;;7.70;4.32;;;;;;;3.76;100.00;93460.59;2104506;28;20020;-82
2022/02/10 19:48:45;;;;;;;10.07;4.90;;;;;;;3.69;100.00;93463.97;2097163;28;20397;-83
2022/02/10 19:49:46;;;;;;;8.25;4.88;;;;;;;3.65;100.00;93457.13;2099618;28;20172;-84
2022/02/10 19:50:47;;;;;;;10.15;4.68;;;;;;;3.64;100.00;93452.94;2105172;28;20080;-82
2022/02/10 19:51:49;;;;;;;9.15;5.13;;;;;;;3.72;100.00;93460.56;2088685;28;20414;-81
2022/02/10 19:52:52;;;;;;;6.25;4.32;;;;;;;3.74;100.00;93457.59;2096829;28;20055;-82
2022/02/10 19:53:55;;;;;;;9.23;5.55;;;;;;;3.69;100.00;93457.91;2096609;28;20062;-81
2022/02/10 19:54:58;;;;;;;11.63;4.75;;;;;;;3.68;100.00;93461.66;2091320;28;20036;-81
2022/02/10 19:55:59;;;;;;;6.90;4.80;;;;;;;3.68;100.00;93464.31;2087454;28;20033;-81
2022/02/10 19:57:00;;;;;;;7.10;4.68;;;;;;;3.60;100.00;93460.84;2099838;28;20078;-82
2022/02/10 19:58:07;;;;;;;7.03;4.38;;;;;;;3.62;100.00;93455.19;2098722;28;20029;-82